Overview Statistics Trail Chart Weather Telemetry Raw packets
 

This is the latest recevied weather packets stored in our database for station/object WASF. If no packets are shown the sender has not sent any weather packets the latest 10 day(s).

<< 6 7 8 9 10 11 12 >>
Time Temp. Humidity Pressure Rain* Wind** Luminosity Snow
1787741879 25° C 83% 1016 hPa 0 mm - - -
1787739569 25° C 83% 1016 hPa 0 mm - - -
1787737576 25° C 83% 1015 hPa 0 mm - - -
1787735583 25° C 83% 1015 hPa 0 mm - - -
1787733591 25° C 83% 1015 hPa 0 mm - - -
1787731592 26.11° C 79% 1015 hPa 0 mm - - -
1787729606 27.22° C 74% 1015 hPa 0 mm - - -
1787727614 27.22° C 70% 1015 hPa 0 mm - - -
1787725623 27.78° C 66% 1015 hPa 0 mm - - -
1787723636 27.78° C 66% 1016 hPa 0 mm - - -
1787721653 27.78° C 62% 1016 hPa 0 mm - - -
1787719644 27.78° C 66% 1016 hPa 0 mm - - -
1787717663 27.22° C 70% 1017 hPa 0 mm - - -
1787715682 28.89° C 62% 1017 hPa 0 mm - - -
1787713711 27.78° C 70% 1018 hPa 0 mm - - -
1787711738 27.22° C 74% 1018 hPa 0 mm - - -
1787709765 27.22° C 70% 1018 hPa 0 mm - - -
1787707777 26.11° C 70% 1018 hPa 0 mm - - -
1787705798 26.11° C 74% 1018 hPa 0 mm - - -
1787703830 23.89° C 83% 1018 hPa 0 mm - - -
1787701853 22.22° C 88% 1018 hPa 0 mm - - -
1787699881 21.11° C 94% 1017 hPa 0 mm - - -
1787697907 21.11° C 94% 1017 hPa 0 mm - - -
1787695936 21.11° C 94% 1017 hPa 0 mm - - -
1787693967 22.22° C 88% 1017 hPa 0 mm - - -

* Rain latest hour (hover to see other rain measurements)
** Current wind speed in m/s (hover to see current wind gust speed)